Fyrbyggaren — SDJP — position and weather

sailwx.info

Track history (hours):
 
Tides and Currents Weather Stations Pressure Air Temp Water Temp Dewpoint Dewpoint Depression Visibility Wind Speed Wind Dir Waves Ship Positions

Fyrbyggaren

Last reported at 2015-Aug-27 20:31 UTC. Time now 2015-Aug-27 21:30 UTC.
Position N 59°19' E 018°06'.

Length 42 m; draft 4 m.

Type: Pollution control. MMSI: 265289000.

Date/timePositionNaut miles runAvg speedWind from/ knotsBaromVisibWave heightAir tempDewpointWater temp
2015-Aug-27 20:31N 59°19' E 018°06'0 0.0
2015-Aug-27 19:31N 59°19' E 018°06'0 0.0
2015-Aug-27 18:31N 59°19' E 018°06'0 0.0
2015-Aug-27 17:31N 59°19' E 018°06'0 0.0
2015-Aug-27 16:31N 59°19' E 018°06'0 0.0
2015-Aug-27 15:31N 59°19' E 018°06'0 0.0
2015-Aug-27 14:25N 59°19' E 018°06'0 0.0
2015-Aug-27 13:31N 59°19' E 018°06'0 0.0
2015-Aug-27 12:31N 59°19' E 018°06'2 2.4
2015-Aug-27 11:33N 59°20' E 018°11'5 4.7
2015-Aug-27 10:33N 59°23' E 018°18'5 1.1
2015-Aug-27 06:33N 59°20' E 018°11'3 2.4
2015-Aug-27 05:31N 59°19' E 018°06'0 0.0
2015-Aug-27 04:19N 59°19' E 018°06'0 0.0
2015-Aug-27 03:31N 59°19' E 018°06'0 0.0
2015-Aug-27 02:31N 59°19' E 018°06'0 0.0
2015-Aug-27 01:25N 59°19' E 018°06'0 0.0
2015-Aug-27 00:31N 59°19' E 018°06'0 0.0
2015-Aug-26 23:31N 59°19' E 018°06'0 0.0
2015-Aug-26 22:31N 59°19' E 018°06'0 0.0
2015-Aug-26 21:19N 59°19' E 018°06'0 0.0
2015-Aug-25 17:31N 59°19' E 018°06'0 0.0
2015-Aug-25 16:31N 59°19' E 018°06'0 0.0
2015-Aug-25 15:31N 59°19' E 018°06'0 0.0
2015-Aug-25 14:31N 59°19' E 018°06'8 7.8
2015-Aug-25 13:32N 59°23' E 018°20'32 3.2
2015-Aug-25 03:26N 58°51' E 018°14'8 9.4
2015-Aug-25 02:33N 58°51' E 018°30'12 9.4
2015-Aug-25 01:18N 58°51' E 018°53'29 3.7
2015-Aug-24 17:33N 58°48' E 019°48'4410.9
2015-Aug-24 13:33N 58°37' E 018°27'4 4.0
2015-Aug-24 12:33N 58°36' E 018°20'3 2.8
2015-Aug-24 11:30N 58°36' E 018°14'0 0.0
2015-Aug-24 10:33N 58°36' E 018°14'0 0.0
2015-Aug-24 09:33N 58°36' E 018°14'0 0.2
2015-Aug-24 08:33N 58°36' E 018°14'4 4.5
2015-Aug-24 07:33N 58°40' E 018°11'1210.9
2015-Aug-24 06:25N 58°52' E 018°03'7 2.9
2015-Aug-24 04:03N 58°59' E 018°04'0 0.0
2015-Aug-24 03:33N 58°59' E 018°04'0 0.0
2015-Aug-24 02:33N 58°59' E 018°04'21 1.5
2015-Aug-23 12:33N 59°20' E 018°11'3 2.6
2015-Aug-23 11:33N 59°19' E 018°06'0 0.0
2015-Aug-23 10:33N 59°19' E 018°06'0 0.0
2015-Aug-23 09:27N 59°19' E 018°06'0 0.0
2015-Aug-23 08:33N 59°19' E 018°06'0 0.0
2015-Aug-23 07:33N 59°19' E 018°06'0 0.0
2015-Aug-23 06:33N 59°19' E 018°06'0 0.0
2015-Aug-23 05:33N 59°19' E 018°06'0 0.0
2015-Aug-23 04:27N 59°19' E 018°06'0 0.0
2015-Aug-23 03:33N 59°19' E 018°06'0 0.0
2015-Aug-23 02:21N 59°19' E 018°06'0 0.0
2015-Aug-23 01:33N 59°19' E 018°06'0 0.0
2015-Aug-23 00:15N 59°19' E 018°06'0 0.0
2015-Aug-22 23:33N 59°19' E 018°06'0 0.0
2015-Aug-22 22:21N 59°19' E 018°06'0 0.0
2015-Aug-22 21:33N 59°19' E 018°06'0 0.0
2015-Aug-22 20:27N 59°19' E 018°06'0 0.0
2015-Aug-22 19:27N 59°19' E 018°06'0 0.0
2015-Aug-22 18:33N 59°19' E 018°06'0 0.0
2015-Aug-22 17:33N 59°19' E 018°06'0 0.0
2015-Aug-22 16:27N 59°19' E 018°06'0 0.0
2015-Aug-22 15:33N 59°19' E 018°06'0 0.0
2015-Aug-22 14:33N 59°19' E 018°06'0 0.0
2015-Aug-22 13:33N 59°19' E 018°06'0 0.0
2015-Aug-22 12:33N 59°19' E 018°06'0 0.0
2015-Aug-22 11:33N 59°19' E 018°06'0 0.0
2015-Aug-22 10:27N 59°19' E 018°06'0 0.0
2015-Aug-22 09:33N 59°19' E 018°06'0 0.0
2015-Aug-22 08:33N 59°19' E 018°06'0 0.0
2015-Aug-22 07:27N 59°19' E 018°06'0 0.0
2015-Aug-22 06:27N 59°19' E 018°06'0 0.0
2015-Aug-22 05:33N 59°19' E 018°06'0 0.0
2015-Aug-22 03:21N 59°19' E 018°06'0 0.0
2015-Aug-22 00:15N 59°19' E 018°06'0 0.0
2015-Aug-21 23:27N 59°19' E 018°06'0 0.0
2015-Aug-21 22:33N 59°19' E 018°06'0 0.0
2015-Aug-21 21:15N 59°19' E 018°06'0 0.0
2015-Aug-21 20:33N 59°19' E 018°06'0 0.0
2015-Aug-21 19:21N 59°19' E 018°06'0 0.0
2015-Aug-21 18:33N 59°19' E 018°06'0 0.0
2015-Aug-21 17:33N 59°19' E 018°06'0 0.0
2015-Aug-21 16:33N 59°19' E 018°06'0 0.0
2015-Aug-21 15:15N 59°19' E 018°06'0 0.0
2015-Aug-21 14:33N 59°19' E 018°06'0 0.0
2015-Aug-21 13:09N 59°19' E 018°06'0 0.0
2015-Aug-21 12:33N 59°19' E 018°06'0 0.0
2015-Aug-21 11:27N 59°19' E 018°06'0 0.0
2015-Aug-21 10:33N 59°19' E 018°06'0 0.0
2015-Aug-21 09:33N 59°19' E 018°06'0 0.0
2015-Aug-21 08:24N 59°19' E 018°06'0 0.0
2015-Aug-21 06:09N 59°19' E 018°06'0 0.0
2015-Aug-21 05:27N 59°19' E 018°06'0 0.0
2015-Aug-21 04:33N 59°19' E 018°06'0 0.0
2015-Aug-21 03:33N 59°19' E 018°06'0 0.0
2015-Aug-21 02:33N 59°19' E 018°06'0 0.0
2015-Aug-21 01:21N 59°19' E 018°06'0 0.0
2015-Aug-21 00:33N 59°19' E 018°06'0 0.0
2015-Aug-20 23:27N 59°19' E 018°06'0 0.0
2015-Aug-20 22:33N 59°19' E 018°06'0 0.0
2015-Aug-20 21:21N 59°19' E 018°06'0 0.0
2015-Aug-20 20:09N 59°19' E 018°06'0 0.0
2015-Aug-20 18:27N 59°19' E 018°06'0 0.0
2015-Aug-20 17:15N 59°19' E 018°06'0 0.0
2015-Aug-20 16:33N 59°19' E 018°06'0 0.0
2015-Aug-20 15:33N 59°19' E 018°06'0 0.0
2015-Aug-20 14:09N 59°19' E 018°06'0 0.0
2015-Aug-20 13:21N 59°19' E 018°06'0 0.0
2015-Aug-20 12:21N 59°19' E 018°06'0 0.0
2015-Aug-20 11:27N 59°19' E 018°06'0 0.0
2015-Aug-20 09:33N 59°19' E 018°06'0 0.0
2015-Aug-20 06:27N 59°19' E 018°06'0 0.0
2015-Aug-20 05:33N 59°19' E 018°06'0 0.0
2015-Aug-20 04:33N 59°19' E 018°06'0 0.0
2015-Aug-20 03:33N 59°19' E 018°06'0 0.0
2015-Aug-20 02:27N 59°19' E 018°06'0 0.0
2015-Aug-20 01:33N 59°19' E 018°06'0 0.0
2015-Aug-20 00:21N 59°19' E 018°06'0 0.0
2015-Aug-19 23:21N 59°19' E 018°06'0 0.0
2015-Aug-19 22:33N 59°19' E 018°06'0 0.0
2015-Aug-19 21:33N 59°19' E 018°06'0 0.0
2015-Aug-19 20:33N 59°19' E 018°06'0 0.0
2015-Aug-19 19:33N 59°19' E 018°06'0 0.0
2015-Aug-19 18:33N 59°19' E 018°06'0 0.0
2015-Aug-19 17:27N 59°19' E 018°06'0 0.0
2015-Aug-19 16:33N 59°19' E 018°06'0 0.0
2015-Aug-19 15:33N 59°19' E 018°06'0 0.0
2015-Aug-19 14:33N 59°19' E 018°06'0 0.0
2015-Aug-19 13:33N 59°19' E 018°06'0 0.0
2015-Aug-19 12:33N 59°19' E 018°06'0 0.0
2015-Aug-19 11:33N 59°19' E 018°06'0 0.0
2015-Aug-19 10:33N 59°19' E 018°06'0 0.0
2015-Aug-19 09:33N 59°19' E 018°06'0 0.0
2015-Aug-19 08:33N 59°19' E 018°06'0 0.0
2015-Aug-19 07:27N 59°19' E 018°06'0 0.0
2015-Aug-19 06:33N 59°19' E 018°06'0 0.0
2015-Aug-19 05:33N 59°19' E 018°06'0 0.0
2015-Aug-19 04:27N 59°19' E 018°06'0 0.0
2015-Aug-19 03:33N 59°19' E 018°06'0 0.0
2015-Aug-19 02:33N 59°19' E 018°06'0 0.0
2015-Aug-19 01:33N 59°19' E 018°06'0 0.0
2015-Aug-19 00:33N 59°19' E 018°06'0 0.0
2015-Aug-18 23:33N 59°19' E 018°06'0 0.0
2015-Aug-18 22:33N 59°19' E 018°06'0 0.0
2015-Aug-18 21:33N 59°19' E 018°06'0 0.0
2015-Aug-18 20:27N 59°19' E 018°06'0 0.0
2015-Aug-18 19:33N 59°19' E 018°06'0 0.0
2015-Aug-18 18:21N 59°19' E 018°06'0 0.0
2015-Aug-18 17:33N 59°19' E 018°06'0 0.0
2015-Aug-18 16:33N 59°19' E 018°06'0 0.0
2015-Aug-18 15:33N 59°19' E 018°06'0 0.0
2015-Aug-18 14:33N 59°19' E 018°06'0 0.0
2015-Aug-18 13:27N 59°19' E 018°06'0 0.0
2015-Aug-18 12:27N 59°19' E 018°06'0 0.0
2015-Aug-18 11:33N 59°19' E 018°06'0 0.0
2015-Aug-18 10:15N 59°19' E 018°06'0 0.0
2015-Aug-18 09:33N 59°19' E 018°06'0 0.0
2015-Aug-18 08:12N 59°19' E 018°06'0 0.0
2015-Aug-18 06:24N 59°19' E 018°06'0 0.0
2015-Aug-18 05:30N 59°19' E 018°06'0 0.0
2015-Aug-18 04:30N 59°19' E 018°06'0 0.0
2015-Aug-18 04:06N 59°19' E 018°06'0 0.0
2015-Aug-18 03:30N 59°19' E 018°06'0 0.0
2015-Aug-18 02:30N 59°19' E 018°06'0 0.0
2015-Aug-18 01:24N 59°19' E 018°06'0 0.0
2015-Aug-18 00:30N 59°19' E 018°06'0 0.0
2015-Aug-17 23:30N 59°19' E 018°06'0 0.0
2015-Aug-17 22:30N 59°19' E 018°06'0 0.0
2015-Aug-17 21:30N 59°19' E 018°06'  
Track history (hours):
 
Tides and Currents Weather Stations Pressure Air Temp Water Temp Dewpoint Dewpoint Depression Visibility Wind Speed Wind Dir Waves Ship Positions

Fyrbyggaren

Last reported at 2015-Aug-27 20:31 UTC. Time now 2015-Aug-27 21:30 UTC.
Position N 59°19' E 018°06'.

Length 42 m; draft 4 m.

Type: Pollution control. MMSI: 265289000.

Date/timePositionNaut miles runAvg speedWind from/ knotsBaromVisibWave heightAir tempDewpointWater temp
2015-Aug-27 20:31N 59°19' E 018°06'0 0.0
2015-Aug-27 19:31N 59°19' E 018°06'0 0.0
2015-Aug-27 18:31N 59°19' E 018°06'0 0.0
2015-Aug-27 17:31N 59°19' E 018°06'0 0.0
2015-Aug-27 16:31N 59°19' E 018°06'0 0.0
2015-Aug-27 15:31N 59°19' E 018°06'0 0.0
2015-Aug-27 14:25N 59°19' E 018°06'0 0.0
2015-Aug-27 13:31N 59°19' E 018°06'0 0.0
2015-Aug-27 12:31N 59°19' E 018°06'2 2.4
2015-Aug-27 11:33N 59°20' E 018°11'5 4.7
2015-Aug-27 10:33N 59°23' E 018°18'5 1.1
2015-Aug-27 06:33N 59°20' E 018°11'3 2.4
2015-Aug-27 05:31N 59°19' E 018°06'0 0.0
2015-Aug-27 04:19N 59°19' E 018°06'0 0.0
2015-Aug-27 03:31N 59°19' E 018°06'0 0.0
2015-Aug-27 02:31N 59°19' E 018°06'0 0.0
2015-Aug-27 01:25N 59°19' E 018°06'0 0.0
2015-Aug-27 00:31N 59°19' E 018°06'0 0.0
2015-Aug-26 23:31N 59°19' E 018°06'0 0.0
2015-Aug-26 22:31N 59°19' E 018°06'0 0.0
2015-Aug-26 21:19N 59°19' E 018°06'0 0.0
2015-Aug-25 17:31N 59°19' E 018°06'0 0.0
2015-Aug-25 16:31N 59°19' E 018°06'0 0.0
2015-Aug-25 15:31N 59°19' E 018°06'0 0.0
2015-Aug-25 14:31N 59°19' E 018°06'8 7.8
2015-Aug-25 13:32N 59°23' E 018°20'32 3.2
2015-Aug-25 03:26N 58°51' E 018°14'8 9.4
2015-Aug-25 02:33N 58°51' E 018°30'12 9.4
2015-Aug-25 01:18N 58°51' E 018°53'29 3.7
2015-Aug-24 17:33N 58°48' E 019°48'4410.9
2015-Aug-24 13:33N 58°37' E 018°27'4 4.0
2015-Aug-24 12:33N 58°36' E 018°20'3 2.8
2015-Aug-24 11:30N 58°36' E 018°14'0 0.0
2015-Aug-24 10:33N 58°36' E 018°14'0 0.0
2015-Aug-24 09:33N 58°36' E 018°14'0 0.2
2015-Aug-24 08:33N 58°36' E 018°14'4 4.5
2015-Aug-24 07:33N 58°40' E 018°11'1210.9
2015-Aug-24 06:25N 58°52' E 018°03'7 2.9
2015-Aug-24 04:03N 58°59' E 018°04'0 0.0
2015-Aug-24 03:33N 58°59' E 018°04'0 0.0
2015-Aug-24 02:33N 58°59' E 018°04'21 1.5
2015-Aug-23 12:33N 59°20' E 018°11'3 2.6
2015-Aug-23 11:33N 59°19' E 018°06'0 0.0
2015-Aug-23 10:33N 59°19' E 018°06'0 0.0
2015-Aug-23 09:27N 59°19' E 018°06'0 0.0
2015-Aug-23 08:33N 59°19' E 018°06'0 0.0
2015-Aug-23 07:33N 59°19' E 018°06'0 0.0
2015-Aug-23 06:33N 59°19' E 018°06'0 0.0
2015-Aug-23 05:33N 59°19' E 018°06'0 0.0
2015-Aug-23 04:27N 59°19' E 018°06'0 0.0
2015-Aug-23 03:33N 59°19' E 018°06'0 0.0
2015-Aug-23 02:21N 59°19' E 018°06'0 0.0
2015-Aug-23 01:33N 59°19' E 018°06'0 0.0
2015-Aug-23 00:15N 59°19' E 018°06'0 0.0
2015-Aug-22 23:33N 59°19' E 018°06'0 0.0
2015-Aug-22 22:21N 59°19' E 018°06'0 0.0
2015-Aug-22 21:33N 59°19' E 018°06'0 0.0
2015-Aug-22 20:27N 59°19' E 018°06'0 0.0
2015-Aug-22 19:27N 59°19' E 018°06'0 0.0
2015-Aug-22 18:33N 59°19' E 018°06'0 0.0
2015-Aug-22 17:33N 59°19' E 018°06'0 0.0
2015-Aug-22 16:27N 59°19' E 018°06'0 0.0
2015-Aug-22 15:33N 59°19' E 018°06'0 0.0
2015-Aug-22 14:33N 59°19' E 018°06'0 0.0
2015-Aug-22 13:33N 59°19' E 018°06'0 0.0
2015-Aug-22 12:33N 59°19' E 018°06'0 0.0
2015-Aug-22 11:33N 59°19' E 018°06'0 0.0
2015-Aug-22 10:27N 59°19' E 018°06'0 0.0
2015-Aug-22 09:33N 59°19' E 018°06'0 0.0
2015-Aug-22 08:33N 59°19' E 018°06'0 0.0
2015-Aug-22 07:27N 59°19' E 018°06'0 0.0
2015-Aug-22 06:27N 59°19' E 018°06'0 0.0
2015-Aug-22 05:33N 59°19' E 018°06'0 0.0
2015-Aug-22 03:21N 59°19' E 018°06'0 0.0
2015-Aug-22 00:15N 59°19' E 018°06'0 0.0
2015-Aug-21 23:27N 59°19' E 018°06'0 0.0
2015-Aug-21 22:33N 59°19' E 018°06'0 0.0
2015-Aug-21 21:15N 59°19' E 018°06'0 0.0
2015-Aug-21 20:33N 59°19' E 018°06'0 0.0
2015-Aug-21 19:21N 59°19' E 018°06'0 0.0
2015-Aug-21 18:33N 59°19' E 018°06'0 0.0
2015-Aug-21 17:33N 59°19' E 018°06'0 0.0
2015-Aug-21 16:33N 59°19' E 018°06'0 0.0
2015-Aug-21 15:15N 59°19' E 018°06'0 0.0
2015-Aug-21 14:33N 59°19' E 018°06'0 0.0
2015-Aug-21 13:09N 59°19' E 018°06'0 0.0
2015-Aug-21 12:33N 59°19' E 018°06'0 0.0
2015-Aug-21 11:27N 59°19' E 018°06'0 0.0
2015-Aug-21 10:33N 59°19' E 018°06'0 0.0
2015-Aug-21 09:33N 59°19' E 018°06'0 0.0
2015-Aug-21 08:24N 59°19' E 018°06'0 0.0
2015-Aug-21 06:09N 59°19' E 018°06'0 0.0
2015-Aug-21 05:27N 59°19' E 018°06'0 0.0
2015-Aug-21 04:33N 59°19' E 018°06'0 0.0
2015-Aug-21 03:33N 59°19' E 018°06'0 0.0
2015-Aug-21 02:33N 59°19' E 018°06'0 0.0
2015-Aug-21 01:21N 59°19' E 018°06'0 0.0
2015-Aug-21 00:33N 59°19' E 018°06'0 0.0
2015-Aug-20 23:27N 59°19' E 018°06'0 0.0
2015-Aug-20 22:33N 59°19' E 018°06'0 0.0
2015-Aug-20 21:21N 59°19' E 018°06'0 0.0
2015-Aug-20 20:09N 59°19' E 018°06'0 0.0
2015-Aug-20 18:27N 59°19' E 018°06'0 0.0
2015-Aug-20 17:15N 59°19' E 018°06'0 0.0
2015-Aug-20 16:33N 59°19' E 018°06'0 0.0
2015-Aug-20 15:33N 59°19' E 018°06'0 0.0
2015-Aug-20 14:09N 59°19' E 018°06'0 0.0
2015-Aug-20 13:21N 59°19' E 018°06'0 0.0
2015-Aug-20 12:21N 59°19' E 018°06'0 0.0
2015-Aug-20 11:27N 59°19' E 018°06'0 0.0
2015-Aug-20 09:33N 59°19' E 018°06'0 0.0
2015-Aug-20 06:27N 59°19' E 018°06'0 0.0
2015-Aug-20 05:33N 59°19' E 018°06'0 0.0
2015-Aug-20 04:33N 59°19' E 018°06'0 0.0
2015-Aug-20 03:33N 59°19' E 018°06'0 0.0
2015-Aug-20 02:27N 59°19' E 018°06'0 0.0
2015-Aug-20 01:33N 59°19' E 018°06'0 0.0
2015-Aug-20 00:21N 59°19' E 018°06'0 0.0
2015-Aug-19 23:21N 59°19' E 018°06'0 0.0
2015-Aug-19 22:33N 59°19' E 018°06'0 0.0
2015-Aug-19 21:33N 59°19' E 018°06'0 0.0
2015-Aug-19 20:33N 59°19' E 018°06'0 0.0
2015-Aug-19 19:33N 59°19' E 018°06'0 0.0
2015-Aug-19 18:33N 59°19' E 018°06'0 0.0
2015-Aug-19 17:27N 59°19' E 018°06'0 0.0
2015-Aug-19 16:33N 59°19' E 018°06'0 0.0
2015-Aug-19 15:33N 59°19' E 018°06'0 0.0
2015-Aug-19 14:33N 59°19' E 018°06'0 0.0
2015-Aug-19 13:33N 59°19' E 018°06'0 0.0
2015-Aug-19 12:33N 59°19' E 018°06'0 0.0
2015-Aug-19 11:33N 59°19' E 018°06'0 0.0
2015-Aug-19 10:33N 59°19' E 018°06'0 0.0
2015-Aug-19 09:33N 59°19' E 018°06'0 0.0
2015-Aug-19 08:33N 59°19' E 018°06'0 0.0
2015-Aug-19 07:27N 59°19' E 018°06'0 0.0
2015-Aug-19 06:33N 59°19' E 018°06'0 0.0
2015-Aug-19 05:33N 59°19' E 018°06'0 0.0
2015-Aug-19 04:27N 59°19' E 018°06'0 0.0
2015-Aug-19 03:33N 59°19' E 018°06'0 0.0
2015-Aug-19 02:33N 59°19' E 018°06'0 0.0
2015-Aug-19 01:33N 59°19' E 018°06'0 0.0
2015-Aug-19 00:33N 59°19' E 018°06'0 0.0
2015-Aug-18 23:33N 59°19' E 018°06'0 0.0
2015-Aug-18 22:33N 59°19' E 018°06'0 0.0
2015-Aug-18 21:33N 59°19' E 018°06'0 0.0
2015-Aug-18 20:27N 59°19' E 018°06'0 0.0
2015-Aug-18 19:33N 59°19' E 018°06'0 0.0
2015-Aug-18 18:21N 59°19' E 018°06'0 0.0
2015-Aug-18 17:33N 59°19' E 018°06'0 0.0
2015-Aug-18 16:33N 59°19' E 018°06'0 0.0
2015-Aug-18 15:33N 59°19' E 018°06'0 0.0
2015-Aug-18 14:33N 59°19' E 018°06'0 0.0
2015-Aug-18 13:27N 59°19' E 018°06'0 0.0
2015-Aug-18 12:27N 59°19' E 018°06'0 0.0
2015-Aug-18 11:33N 59°19' E 018°06'0 0.0
2015-Aug-18 10:15N 59°19' E 018°06'0 0.0
2015-Aug-18 09:33N 59°19' E 018°06'0 0.0
2015-Aug-18 08:12N 59°19' E 018°06'0 0.0
2015-Aug-18 06:24N 59°19' E 018°06'0 0.0
2015-Aug-18 05:30N 59°19' E 018°06'0 0.0
2015-Aug-18 04:30N 59°19' E 018°06'0 0.0
2015-Aug-18 04:06N 59°19' E 018°06'0 0.0
2015-Aug-18 03:30N 59°19' E 018°06'0 0.0
2015-Aug-18 02:30N 59°19' E 018°06'0 0.0
2015-Aug-18 01:24N 59°19' E 018°06'0 0.0
2015-Aug-18 00:30N 59°19' E 018°06'0 0.0
2015-Aug-17 23:30N 59°19' E 018°06'0 0.0
2015-Aug-17 22:30N 59°19' E 018°06'0 0.0
2015-Aug-17 21:30N 59°19' E 018°06'  

Dump ship's entire track history